Temperatur und Luftfeuchte

Temperatur und Luftfeuchte

Die letzten 100 Messwerte

Nummer Datum und Zeit Sensor ID Temperatur in Celsius gef├╝hlte Temperatur Luftfeuchte in %
26696 2020-05-27 18:12:57 Terrasse 23.70 23.27 43.70
26695 2020-05-27 17:44:42 Terrasse 24.30 23.90 42.50
26694 2020-05-27 17:16:24 Terrasse 24.70 24.37 43.70
26693 2020-05-27 16:48:08 Terrasse 25.10 24.73 40.90
26692 2020-05-27 16:19:55 Terrasse 26.00 25.73 41.00
26691 2020-05-27 15:51:45 Terrasse 26.50 26.52 40.10
26690 2020-05-27 15:23:26 Terrasse 27.40 27.16 39.90
26689 2020-05-27 14:55:15 Terrasse 28.30 27.92 39.80
26688 2020-05-27 14:26:50 Terrasse 27.60 27.39 41.00
26687 2020-05-27 13:58:37 Terrasse 28.40 28.16 41.80
26686 2020-05-27 13:30:15 Terrasse 27.40 27.29 42.20
26685 2020-05-27 13:01:46 Terrasse 26.10 25.97 46.10
26684 2020-05-27 12:33:16 Terrasse 23.90 23.65 50.00
26683 2020-05-27 12:05:01 Terrasse 23.70 23.45 50.60
26682 2020-05-27 11:36:35 Terrasse 22.80 22.51 52.80
26681 2020-05-27 11:08:09 Terrasse 21.50 21.13 54.40
26680 2020-05-27 10:39:30 Terrasse 19.60 19.17 59.70
26679 2020-05-27 10:11:00 Terrasse 18.20 17.78 65.10
26678 2020-05-27 09:42:35 Terrasse 17.00 16.51 67.30
26677 2020-05-27 09:14:07 Terrasse 15.80 15.28 70.50
26676 2020-05-27 08:45:38 Terrasse 14.50 14.14 81.60
26675 2020-05-27 08:17:13 Terrasse 13.50 13.18 87.10
26674 2020-05-27 07:48:51 Terrasse 12.80 12.60 94.50
26673 2020-05-27 07:20:30 Terrasse 12.30 12.19 99.90
26672 2020-05-27 06:52:10 Terrasse 11.90 11.67 96.80
26671 2020-05-27 06:23:50 Terrasse 11.70 11.41 95.20
26670 2020-05-27 05:55:33 Terrasse 11.80 11.46 92.70
26669 2020-05-27 05:27:16 Terrasse 11.90 11.58 93.10
26668 2020-05-27 04:58:58 Terrasse 12.10 11.75 91.50
26667 2020-05-27 04:30:42 Terrasse 12.20 11.83 90.10
26666 2020-05-27 04:02:25 Terrasse 12.40 11.93 85.50
26665 2020-05-27 03:34:10 Terrasse 12.70 12.10 79.60
26664 2020-05-27 03:05:50 Terrasse 12.80 12.21 79.40
26663 2020-05-27 02:37:31 Terrasse 12.70 12.10 79.30
26662 2020-05-27 02:09:15 Terrasse 13.30 12.58 72.50
26661 2020-05-27 01:40:59 Terrasse 13.80 13.04 69.00
26660 2020-05-27 01:12:42 Terrasse 14.00 13.27 69.40
26659 2020-05-27 00:44:24 Terrasse 14.00 13.23 67.80
26658 2020-05-27 00:16:06 Terrasse 14.10 13.32 67.30
26657 2020-05-26 23:47:49 Terrasse 14.50 13.72 65.50
26656 2020-05-26 23:19:32 Terrasse 15.00 14.24 64.40
26655 2020-05-26 22:51:16 Terrasse 15.30 14.57 64.50
26654 2020-05-26 22:23:01 Terrasse 15.60 14.87 63.50
26653 2020-05-26 21:54:44 Terrasse 16.10 15.37 61.60
26652 2020-05-26 21:26:29 Terrasse 16.60 15.91 60.90
26651 2020-05-26 20:58:14 Terrasse 17.20 16.53 59.40
26650 2020-05-26 20:29:58 Terrasse 17.70 17.07 59.10
26649 2020-05-26 20:01:42 Terrasse 18.50 17.89 56.70
26648 2020-05-26 19:33:27 Terrasse 19.20 18.59 54.30
26647 2020-05-26 19:05:08 Terrasse 19.40 18.79 53.50
26646 2020-05-26 18:36:50 Terrasse 19.90 19.35 53.70
26645 2020-05-26 18:08:36 Terrasse 20.50 19.98 52.50
26644 2020-05-26 17:40:16 Terrasse 20.40 19.86 52.40
26643 2020-05-26 17:11:59 Terrasse 21.00 20.50 51.60
26642 2020-05-26 16:43:43 Terrasse 21.60 21.19 52.60
26641 2020-05-26 16:15:27 Terrasse 21.80 21.41 52.60
26640 2020-05-26 15:47:10 Terrasse 22.40 22.06 52.20
26639 2020-05-26 15:18:55 Terrasse 23.20 22.92 51.50
26638 2020-05-26 14:50:40 Terrasse 24.20 24.03 51.70
26637 2020-05-26 14:22:25 Terrasse 24.20 24.08 53.90
26636 2020-05-26 13:53:56 Terrasse 23.20 22.97 53.40
26635 2020-05-26 13:25:06 Terrasse 19.00 18.50 59.10
26634 2020-05-26 12:56:50 Terrasse 18.70 18.29 63.60
26633 2020-05-26 12:28:22 Terrasse 18.00 17.53 64.00
26632 2020-05-26 12:00:00 Terrasse 17.10 16.72 70.90
26631 2020-05-26 11:31:40 Terrasse 16.60 16.18 71.60
26630 2020-05-26 11:03:26 Terrasse 16.90 16.53 72.20
26629 2020-05-26 10:35:12 Terrasse 17.10 16.74 71.70
26628 2020-05-26 10:06:52 Terrasse 16.80 16.48 74.60
26627 2020-05-26 09:38:29 Terrasse 15.70 15.46 81.90
26626 2020-05-26 09:10:04 Terrasse 14.80 14.64 88.30
26625 2020-05-26 08:41:35 Terrasse 13.50 13.40 95.60
26624 2020-05-26 08:13:11 Terrasse 12.70 12.63 99.90
26623 2020-05-26 07:44:49 Terrasse 12.10 11.97 99.90
26622 2020-05-26 07:16:28 Terrasse 11.60 11.42 99.90
26621 2020-05-26 06:48:10 Terrasse 11.30 11.09 99.90
26620 2020-05-26 06:19:52 Terrasse 11.10 10.87 99.90
26619 2020-05-26 05:51:35 Terrasse 11.10 10.81 97.60
26618 2020-05-26 05:23:20 Terrasse 11.50 11.15 93.80
26617 2020-05-26 04:55:03 Terrasse 11.70 11.30 90.80
26616 2020-05-26 04:26:46 Terrasse 12.10 11.60 85.50
26615 2020-05-26 03:58:30 Terrasse 12.20 11.63 82.40
26614 2020-05-26 03:30:14 Terrasse 12.40 11.75 78.60
26613 2020-05-26 03:01:58 Terrasse 12.70 11.96 74.00
26612 2020-05-26 02:33:44 Terrasse 13.10 12.32 70.90
26611 2020-05-26 02:05:29 Terrasse 13.70 12.88 67.20
26610 2020-05-26 01:37:12 Terrasse 13.90 13.07 66.00
26609 2020-05-26 01:08:54 Terrasse 14.10 13.28 65.50
26608 2020-05-26 00:40:37 Terrasse 14.20 13.38 65.40
26607 2020-05-26 00:12:20 Terrasse 14.30 13.47 64.40
26606 2020-05-25 23:44:03 Terrasse 14.40 13.56 63.60
26605 2020-05-25 23:15:47 Terrasse 14.70 13.87 62.90
26604 2020-05-25 22:47:31 Terrasse 15.00 14.16 61.60
26603 2020-05-25 22:19:15 Terrasse 15.40 14.62 62.40
26602 2020-05-25 21:51:00 Terrasse 15.90 15.17 62.10
26601 2020-05-25 21:22:44 Terrasse 16.50 15.78 60.30
26600 2020-05-25 20:54:28 Terrasse 16.90 16.18 58.70
26599 2020-05-25 20:26:14 Terrasse 17.40 16.73 58.60
26598 2020-05-25 19:57:57 Terrasse 17.80 17.17 58.90
26597 2020-05-25 19:29:41 Terrasse 18.20 17.63 59.70